createdAt,value
2022-07-25T00:00:56.307Z,22.21
2022-07-25T00:05:59.424Z,21.89
2022-07-25T00:11:02.295Z,21.79
2022-07-25T00:16:07.342Z,21.85
2022-07-25T00:21:10.490Z,21.75
2022-07-25T00:26:14.492Z,21.33
2022-07-25T00:31:18.794Z,21.03
2022-07-25T00:36:21.978Z,20.79
2022-07-25T00:41:24.903Z,20.83
2022-07-25T00:46:32.672Z,20.99
2022-07-25T00:51:38.232Z,21.15
2022-07-25T00:56:41.864Z,21.16
2022-07-25T01:01:48.309Z,21.05
2022-07-25T01:06:51.510Z,20.84
2022-07-25T01:11:54.407Z,20.71
2022-07-25T01:16:58.662Z,20.68
2022-07-25T01:22:02.899Z,20.73
2022-07-25T01:27:06.002Z,20.73
2022-07-25T01:32:08.887Z,20.72
2022-07-25T01:37:13.115Z,20.75
2022-07-25T01:42:16.110Z,20.64
2022-07-25T01:47:18.981Z,20.40
2022-07-25T01:52:23.182Z,20.17
2022-07-25T01:57:30.790Z,20.17
2022-07-25T02:02:33.967Z,20.18
2022-07-25T02:07:38.167Z,20.08
2022-07-25T02:12:41.009Z,20.01
2022-07-25T02:17:43.874Z,20.08
2022-07-25T02:22:48.083Z,20.07
2022-07-25T02:27:51.066Z,19.98
2022-07-25T02:32:54.426Z,19.78
2022-07-25T02:37:58.903Z,19.67
2022-07-25T02:43:01.744Z,19.58
2022-07-25T02:48:04.919Z,19.54
2022-07-25T02:53:09.136Z,19.54
2022-07-25T02:58:12.343Z,19.58
2022-07-25T03:03:15.190Z,19.58
2022-07-25T03:08:19.408Z,19.49
2022-07-25T03:13:22.282Z,19.45
2022-07-25T03:18:25.134Z,19.28
2022-07-25T03:23:31.040Z,18.92
2022-07-25T03:28:33.908Z,18.71
2022-07-25T03:33:36.743Z,18.76
2022-07-25T03:38:41.306Z,18.90
2022-07-25T03:43:44.361Z,19.03
2022-07-25T03:48:47.229Z,19.06
2022-07-25T03:54:03.961Z,19.03
2022-07-25T03:59:07.571Z,19.01
2022-07-25T04:04:11.270Z,18.87
2022-07-25T04:09:17.146Z,18.69
2022-07-25T04:14:20.025Z,18.65
2022-07-25T04:19:22.892Z,18.69
2022-07-25T04:24:30.358Z,18.75
2022-07-25T04:29:33.225Z,18.79
2022-07-25T04:34:36.054Z,18.76
2022-07-25T04:39:40.285Z,18.79
2022-07-25T04:44:43.181Z,18.81
2022-07-25T04:49:46.104Z,18.83
2022-07-25T04:54:50.322Z,18.92
2022-07-25T04:59:53.218Z,19.03
2022-07-25T05:04:56.558Z,19.11
2022-07-25T05:10:01.770Z,19.25
2022-07-25T05:15:04.727Z,19.35
2022-07-25T05:20:09.061Z,19.45
2022-07-25T05:25:13.589Z,19.58
2022-07-25T05:30:16.442Z,19.79
2022-07-25T05:35:19.306Z,20.02
2022-07-25T05:40:24.328Z,20.21
2022-07-25T05:45:27.218Z,20.46
2022-07-25T05:50:30.110Z,20.70
2022-07-25T05:55:34.677Z,20.94
2022-07-25T06:00:42.908Z,21.12
2022-07-25T06:05:46.583Z,21.23
2022-07-25T06:10:50.814Z,21.41
2022-07-25T06:15:54.410Z,21.69
2022-07-25T06:20:57.310Z,21.86
2022-07-25T06:26:01.530Z,21.98
2022-07-25T06:31:04.212Z,22.11
2022-07-25T06:36:07.819Z,22.25
2022-07-25T06:41:16.279Z,22.38
2022-07-25T06:46:19.257Z,22.52
2022-07-25T06:51:23.680Z,22.67
2022-07-25T06:56:31.423Z,22.87
2022-07-25T07:01:34.351Z,22.98
2022-07-25T07:06:38.706Z,23.20
2022-07-25T07:11:42.918Z,23.34
2022-07-25T07:16:45.800Z,23.52
2022-07-25T07:21:51.517Z,23.60
2022-07-25T07:26:56.132Z,23.73
2022-07-25T07:31:59.013Z,23.82
2022-07-25T07:37:02.581Z,24.05
2022-07-25T07:42:07.041Z,24.37
2022-07-25T07:47:14.364Z,24.56
2022-07-25T07:52:17.527Z,24.80
2022-07-25T07:57:21.729Z,24.96
2022-07-25T08:02:24.608Z,25.19
2022-07-25T08:07:27.568Z,25.40
2022-07-25T08:12:31.779Z,25.67
2022-07-25T08:17:34.610Z,25.83
2022-07-25T08:22:38.908Z,26.04
2022-07-25T08:27:43.496Z,26.29
2022-07-25T08:32:50.942Z,26.42
2022-07-25T08:37:55.118Z,26.68
2022-07-25T08:43:00.062Z,26.96
2022-07-25T08:48:02.961Z,27.26
2022-07-25T08:53:31.471Z,27.47
2022-07-25T08:58:30.454Z,27.76
2022-07-25T09:03:34.123Z,27.92
2022-07-25T09:08:36.975Z,28.08
2022-07-25T09:13:41.661Z,28.23
2022-07-25T09:18:45.498Z,28.35
2022-07-25T09:23:48.338Z,28.49
2022-07-25T09:28:54.864Z,28.68
2022-07-25T09:33:59.531Z,28.82
2022-07-25T09:39:05.771Z,29.01
2022-07-25T09:44:18.476Z,29.22
2022-07-25T09:49:21.377Z,29.42
2022-07-25T09:54:24.312Z,29.58
2022-07-25T09:59:28.687Z,29.67
2022-07-25T10:04:44.598Z,29.80
2022-07-25T10:09:50.246Z,30.04
2022-07-25T10:15:15.888Z,30.40
2022-07-25T10:20:29.194Z,30.80
2022-07-25T10:25:31.829Z,31.17
2022-07-25T10:30:38.224Z,31.40
2022-07-25T10:35:41.621Z,31.69
2022-07-25T10:40:46.576Z,31.87
2022-07-25T10:45:53.715Z,32.05
2022-07-25T10:51:00.180Z,32.22
2022-07-25T10:56:09.336Z,32.48
2022-07-25T11:01:15.304Z,32.66
2022-07-25T11:06:29.950Z,32.75
2022-07-25T11:11:37.817Z,32.93
2022-07-25T11:16:42.165Z,33.06
2022-07-25T11:21:46.571Z,33.23
2022-07-25T11:26:51.310Z,33.39
2022-07-25T11:31:58.673Z,33.83
2022-07-25T11:37:03.153Z,34.18
2022-07-25T11:42:09.058Z,34.24
2022-07-25T11:47:25.350Z,34.28
2022-07-25T11:52:30.991Z,34.31
2022-07-25T11:57:35.641Z,34.39
2022-07-25T12:02:40.046Z,34.70
2022-07-25T12:07:45.825Z,34.93
2022-07-25T12:12:51.070Z,34.95
2022-07-25T12:17:57.027Z,34.88
2022-07-25T12:23:01.906Z,34.86
2022-07-25T12:28:05.766Z,34.83
2022-07-25T12:33:10.374Z,34.78
2022-07-25T12:38:14.369Z,35.01
2022-07-25T12:43:17.268Z,35.06
2022-07-25T12:48:21.503Z,35.17
2022-07-25T12:53:24.446Z,35.32
2022-07-25T12:58:27.431Z,35.32
2022-07-25T13:03:31.770Z,35.19
2022-07-25T13:08:37.747Z,35.00
2022-07-25T13:13:40.978Z,35.12
2022-07-25T13:18:45.301Z,35.39
2022-07-25T13:23:48.410Z,35.25
2022-07-25T13:28:54.286Z,35.02
2022-07-25T13:34:02.323Z,34.72
2022-07-25T13:39:05.875Z,34.64
2022-07-25T13:44:09.125Z,34.69
2022-07-25T13:49:13.608Z,34.87
2022-07-25T13:54:16.613Z,34.87
2022-07-25T13:59:21.643Z,35.00
2022-07-25T14:04:26.301Z,34.95
2022-07-25T14:09:29.179Z,35.24
2022-07-25T14:14:32.070Z,35.86
2022-07-25T14:19:36.324Z,35.72
2022-07-25T14:24:39.876Z,35.70
2022-07-25T14:29:42.788Z,36.06
2022-07-25T14:34:47.054Z,36.20
2022-07-25T14:39:49.905Z,36.33
2022-07-25T14:44:52.918Z,36.35
2022-07-25T14:49:57.131Z,36.79
2022-07-25T14:55:00.991Z,36.84
2022-07-25T15:00:05.397Z,36.01
2022-07-25T15:05:10.478Z,36.02
2022-07-25T15:10:14.393Z,36.04
2022-07-25T15:15:17.231Z,35.37
2022-07-25T15:20:21.632Z,35.63
2022-07-25T15:30:48.295Z,36.76
2022-07-25T15:35:52.826Z,36.47
2022-07-25T15:40:55.787Z,37.49
2022-07-25T15:45:58.696Z,37.89
2022-07-25T15:51:02.899Z,37.96
2022-07-25T15:56:06.264Z,39.40
2022-07-25T16:01:09.359Z,39.97
2022-07-25T16:06:18.627Z,41.07
2022-07-25T16:11:21.813Z,40.78
2022-07-25T16:16:25.799Z,40.05
2022-07-25T16:21:30.364Z,39.50
2022-07-25T16:26:33.285Z,40.38
2022-07-25T16:31:36.180Z,40.11
2022-07-25T16:36:40.505Z,39.10
2022-07-25T16:41:44.475Z,37.93
2022-07-25T16:46:47.422Z,36.40
2022-07-25T16:51:52.182Z,35.85
2022-07-25T16:56:59.425Z,35.82
2022-07-25T17:02:03.929Z,35.31
2022-07-25T17:07:08.220Z,34.04
2022-07-25T17:12:11.167Z,33.72
2022-07-25T17:17:14.424Z,33.88
2022-07-25T17:22:18.673Z,34.19
2022-07-25T17:27:21.624Z,33.55
2022-07-25T17:32:29.557Z,32.88
2022-07-25T17:37:34.344Z,32.07
2022-07-25T17:42:40.656Z,32.76
2022-07-25T17:47:46.184Z,33.78
2022-07-25T17:52:52.478Z,34.17
2022-07-25T17:57:55.547Z,33.06
2022-07-25T18:02:59.539Z,31.76
2022-07-25T18:08:04.051Z,30.77
2022-07-25T18:13:09.475Z,29.88
2022-07-25T18:18:17.023Z,29.03
2022-07-25T18:23:27.039Z,28.59
2022-07-25T18:28:29.908Z,28.03
2022-07-25T18:33:32.774Z,27.77
2022-07-25T18:38:37.355Z,27.56
2022-07-25T18:43:40.225Z,27.30
2022-07-25T18:48:45.817Z,27.12
2022-07-25T18:53:50.100Z,26.91
2022-07-25T18:58:53.013Z,26.68
2022-07-25T19:03:56.662Z,26.54
2022-07-25T19:09:00.875Z,26.37
2022-07-25T19:14:03.988Z,26.21
2022-07-25T19:19:07.153Z,26.09
2022-07-25T19:24:11.734Z,25.99
2022-07-25T19:29:16.420Z,25.88
2022-07-25T19:34:19.244Z,25.77
2022-07-25T19:39:24.516Z,25.68
2022-07-25T19:44:27.430Z,25.56
2022-07-25T19:49:30.268Z,25.47
2022-07-25T19:54:34.641Z,25.39
2022-07-25T19:59:37.682Z,25.35
2022-07-25T20:04:40.501Z,25.41
2022-07-25T20:09:44.714Z,25.62
2022-07-25T20:14:47.783Z,25.81
2022-07-25T20:19:51.819Z,26.00
2022-07-25T20:24:56.150Z,26.08
2022-07-25T20:30:00.113Z,26.12
2022-07-25T20:35:03.198Z,26.13
2022-07-25T20:40:09.836Z,26.08
2022-07-25T20:45:13.165Z,25.99
2022-07-25T20:50:16.104Z,25.97
2022-07-25T21:06:46.040Z,26.56
2022-07-25T21:11:48.995Z,26.14
2022-07-25T21:16:52.021Z,25.76
2022-07-25T21:21:56.348Z,25.56
2022-07-25T21:26:59.241Z,25.68
2022-07-25T21:32:02.173Z,25.49
2022-07-25T21:37:06.602Z,25.32
2022-07-25T21:42:10.045Z,25.10
2022-07-25T21:47:13.629Z,25.11
2022-07-25T21:52:18.294Z,24.82
2022-07-25T21:57:21.530Z,24.92
2022-07-25T22:02:24.774Z,24.91
2022-07-25T22:07:29.547Z,24.76
2022-07-25T22:12:32.352Z,24.69
2022-07-25T22:17:48.197Z,24.63
2022-07-25T22:22:53.998Z,24.52
2022-07-25T22:27:56.847Z,24.33
2022-07-25T22:32:59.691Z,24.31
2022-07-25T22:38:03.909Z,24.36
2022-07-25T22:43:06.798Z,24.39
2022-07-25T22:48:09.634Z,24.44
2022-07-25T22:53:13.914Z,24.49
2022-07-25T22:58:16.726Z,24.39
2022-07-25T23:03:19.620Z,24.19
2022-07-25T23:08:23.817Z,24.04
2022-07-25T23:13:26.734Z,23.81
2022-07-25T23:18:29.619Z,23.75
2022-07-25T23:23:33.970Z,23.74
2022-07-25T23:28:36.813Z,23.60
2022-07-25T23:33:39.652Z,23.33
2022-07-25T23:38:43.829Z,23.38
2022-07-25T23:43:57.128Z,23.29
2022-07-25T23:49:01.379Z,23.17
2022-07-25T23:54:06.157Z,23.10
2022-07-25T23:59:09.237Z,23.05
